Yarnell, AZ (85362)

7:44 PM MST on August 23, 2016 (GMT -0700)
Yarnell Proper | | Change Station

Elev 4760 ft 34.22 °N, 112.75 °W | Updated 18 minutes ago

Mostly Cloudy
Mostly Cloudy
68.7 °F
Feels Like 68.7 °F
N
0.0
Wind Variable Wind from WSW

Today
High -- | Low -- °F
--% Chance of Precip.
Yesterday
High -- | Low -- °F
Precip. -- in
Pressure 30.01 in
Visibility 10.0 miles
Clouds Few 8000 ft
Mostly Cloudy 11000 ft
Dew Point 55 °F
Humidity 62%
Rainfall 0.03 in
Snow Depth Not available.
5:58 AM 7:07 PM
Waning Gibbous, 62% visible
METAR KPRC 240153Z 12003KT 10SM FEW080 BKN110 21/15 A3020 RMK AO2 SLP160 T02060150
Pressure 30.01 in
Visibility 10.0 miles
Clouds Few 8000 ft
Mostly Cloudy 11000 ft
Dew Point 55 °F
Humidity 62%
Rainfall 0.03 in
Snow Depth Not available.
5:58 AM 7:07 PM
Waning Gibbous, 62% visible
METAR KPRC 240153Z 12003KT 10SM FEW080 BKN110 21/15 A3020 RMK AO2 SLP160 T02060150

10-Day Weather Forecast

Almanac

Astronomy

Aug. 23, 2016 Rise Set
Actual Time
Civil Twilight
Nautical Twilight
Astronomical Twilight
Moon
Length of Visible Light
Length of Day
Tomorrow will be .
, % of the Moon is Illuminated

Today's Extremes

State Highs State Lows

Community

WunderPhotos

Upload Photos

1,934,533 photos uploaded!

WunderBlog® & News

Nearby

Air Quality

  Air Quality AQ Index Pollutant
Not available.

Snow Depth

Station Depth Elevation

Earthquake Activity

City Distance Mag. Time & Date
Minimum magnitude displayed is 2.5.

Coastal Water Temperatures

Place Temperature

Stations

Nearby Weather Stations

Station Location Temp. Windchill Dew Point Humidity Wind Precip. Elev Updated Type
                   

Watches & Warnings

There are currently no watches in effect.